Dauntless Aviation
Airports Europe Belgium
EBAW
ANR

Antwerp International Airport (Deurne)

Antwerp, BELGIUM

Airport Info
Suggest Updated Information for this Airport

Location

Latitude / Longitude: 51°11'21"N / 4°27'37"E
  51°11.364'N / 4°27.618'E
  51.1894 / 4.4603

Nearby radio navigation aids

ANT ANTWERPEN VOR/DME on field.
NIK NICKY VOR/DME. 83.0° 10.6nm from NIK to field.
ONW ANTWERPEN NDB. 290.6° 4.1nm from ONW to field.
WW ANTWERP NDB on field.

Runway Information

Runway 11 /29

Dimensions: 4954 x 148 ft.
Surface: ASP
 
Runway 11
Runway 29
Latitude: 51.191861 51.187706
Longitude: 4.454758 4.473178
Elevation: 36 ft. 36 ft.
Runway true heading: 108 288
 

Instrument Procedures

  Aerodrome Chart
  Aerodrome Chart Appendix 1: Runway Marking and Lighting Aids
  Aerodrome Chart Appendix 2: Hot Spots

STARs (Standard Terminal Arrivals)

  STAR - Instrument

IAPs (Instrument Approach Procedures)

  Visual Approach Chart
  Visual Approach Chart Appendix 1: Aerodrome Traffic Circuit
  Visual Approach Chart Appendix 2: Helicopter Procedures
  Aerodrome Obstacle Chart. Type A (Operating Limitations)
  RNAV (GNSS) Rwy 11. Appendix: FAS Datablock
  Aerodrome Information (Textual)
  ATC Surveillance Minimum Altitude Chart
  ILS or LOC Rwy 29
  RNAV (GNSS) Rwy 11
  VOR Rwy 11
  VOR Rwy 29

Departure Procedures

  SID - Instrument Rwy 11
  SID - Instrument Rwy 29
Satellite photo at:
Airport distance calculator
From:
Weather Reports

METAR

EBAW

EBAW 180220Z AUTO VRB02KT CAVOK 17/12 Q1011
EHWO
16.5nm NW
EHWO 180225Z AUTO VRB01KT 9999 OVC120 17/13 Q1010 BLU
EBBR
17.4nm SE
EBBR 180220Z 20004KT CAVOK 15/12 Q1011 NOSIG
EBDT
25.1nm E
EBDT 180225Z AUTO 16004KT 9999 SCT090/// BKN100/// OVC160/// 15/12 Q1011 BLU
EHGR
28.4nm N
EHGR 180225Z AUTO 15004KT 9999 OVC110 16/12 Q1011 BLU
EBBE
28.8nm SE
EBBE 180225Z AUTO 15007KT 9999 BKN160/// 17/11 Q1011 BLU

TAF

EBAW
TAF EBAW 172310Z 1800/1809 17005KT CAVOK
EBBR
17.4nm SE
TAF EBBR 172310Z 1800/1906 17005KT 9999 FEW030 BECMG 1804/1806 24010KT PROB40 TEMPO 1815/1818 4000 SHRA
EBBE
28.8nm SE
TAF EBBE 171541Z 1719/1807 VRB03KT 9999 FEW045 SCT150 TEMPO 1803/1805 SKC
EBBL
37.9nm E
TAF EBBL 171541Z 1719/1807 03004KT 9999 BKN200 BECMG 1801/1803 15004KT SCT050 BKN120 BKN200
EHEH
38.0nm NE
TAF EHEH 172351Z 1800/1906 VRB02KT CAVOK BECMG 1805/1808 23006KT TEMPO 1811/1816 25010G20KT TEMPO 1816/1823 FEW035CB BKN050 PROB30 TEMPO 1816/1820 4000 SHRA SCT018 SCT030CB BKN050 PROB30 1901/1905 4500 BR
Safelog

 

Dauntless Aviation

© 2007-2019 Dauntless Aviation, all rights reserved
Information provided via PilotNav comes from a variety of official and unofficial data sources. As errors are possible, do not use PilotNav for primary flight planning purposes. Verify any information that you receive via PilotNav with current and canonical charts and other official documents. The material in this database is subject to database copyrights held by Dauntless Aviation and may not be copied without the express permission of Dauntless Aviation - licenses for use of part of all of this data are available for purchase; enquire via the Dauntless Aviation helpdesk. A number of mechanisms and markers exist in the database to protect against and identify infringement / copyright. Automated queries against this website are stictly prohibited, and all activity is logged and analyzed.